sensor_id;sensor_type;location;lat;lon;timestamp;temperature;humidity
18694;DHT22;9477;51.414;10.362;2023-05-23T00:00:32;18.90;95.70
18694;DHT22;9477;51.414;10.362;2023-05-23T00:02:37;18.50;96.00
18694;DHT22;9477;51.414;10.362;2023-05-23T00:04:41;18.40;96.50
18694;DHT22;9477;51.414;10.362;2023-05-23T00:06:45;18.40;96.60
18694;DHT22;9477;51.414;10.362;2023-05-23T00:08:48;18.00;96.90
18694;DHT22;9477;51.414;10.362;2023-05-23T00:10:51;18.00;97.00
18694;DHT22;9477;51.414;10.362;2023-05-23T00:12:54;18.00;97.20
18694;DHT22;9477;51.414;10.362;2023-05-23T00:14:58;17.80;97.40
18694;DHT22;9477;51.414;10.362;2023-05-23T00:17:01;17.80;97.40
18694;DHT22;9477;51.414;10.362;2023-05-23T00:19:06;18.00;97.50
18694;DHT22;9477;51.414;10.362;2023-05-23T00:21:10;18.10;97.60
18694;DHT22;9477;51.414;10.362;2023-05-23T00:23:14;18.20;97.50
18694;DHT22;9477;51.414;10.362;2023-05-23T00:25:20;17.70;97.40
18694;DHT22;9477;51.414;10.362;2023-05-23T00:27:23;18.10;97.60
18694;DHT22;9477;51.414;10.362;2023-05-23T00:29:25;17.90;97.80
18694;DHT22;9477;51.414;10.362;2023-05-23T00:31:28;18.10;97.60
18694;DHT22;9477;51.414;10.362;2023-05-23T00:33:32;18.20;97.60
18694;DHT22;9477;51.414;10.362;2023-05-23T00:35:34;18.10;97.40
18694;DHT22;9477;51.414;10.362;2023-05-23T00:37:39;18.20;97.40
18694;DHT22;9477;51.414;10.362;2023-05-23T00:39:41;18.30;97.50
18694;DHT22;9477;51.414;10.362;2023-05-23T00:41:46;18.00;97.50
18694;DHT22;9477;51.414;10.362;2023-05-23T00:43:52;17.90;97.60
18694;DHT22;9477;51.414;10.362;2023-05-23T00:45:55;17.90;97.70
18694;DHT22;9477;51.414;10.362;2023-05-23T00:47:58;18.00;97.70
18694;DHT22;9477;51.414;10.362;2023-05-23T00:50:07;17.90;97.70
18694;DHT22;9477;51.414;10.362;2023-05-23T00:52:10;18.00;97.70
18694;DHT22;9477;51.414;10.362;2023-05-23T00:54:15;17.90;97.70
18694;DHT22;9477;51.414;10.362;2023-05-23T00:56:20;18.00;97.80
18694;DHT22;9477;51.414;10.362;2023-05-23T00:58:23;18.00;98.10
18694;DHT22;9477;51.414;10.362;2023-05-23T01:00:27;17.90;97.80
18694;DHT22;9477;51.414;10.362;2023-05-23T01:02:32;17.90;97.90
18694;DHT22;9477;51.414;10.362;2023-05-23T01:04:37;18.00;97.90
18694;DHT22;9477;51.414;10.362;2023-05-23T01:06:40;17.80;97.90
18694;DHT22;9477;51.414;10.362;2023-05-23T01:08:47;17.90;97.90
18694;DHT22;9477;51.414;10.362;2023-05-23T01:10:51;17.80;98.00
18694;DHT22;9477;51.414;10.362;2023-05-23T01:13:01;17.80;98.30
18694;DHT22;9477;51.414;10.362;2023-05-23T01:15:08;17.90;98.10
18694;DHT22;9477;51.414;10.362;2023-05-23T01:17:14;18.10;98.00
18694;DHT22;9477;51.414;10.362;2023-05-23T01:19:38;18.30;97.70
18694;DHT22;9477;51.414;10.362;2023-05-23T01:21:52;18.40;97.60
18694;DHT22;9477;51.414;10.362;2023-05-23T01:24:12;18.50;97.50
18694;DHT22;9477;51.414;10.362;2023-05-23T01:26:30;18.60;97.40
18694;DHT22;9477;51.414;10.362;2023-05-23T01:28:41;18.50;97.40
18694;DHT22;9477;51.414;10.362;2023-05-23T01:30:45;18.60;97.50
18694;DHT22;9477;51.414;10.362;2023-05-23T01:32:52;18.80;97.30
18694;DHT22;9477;51.414;10.362;2023-05-23T01:34:56;18.60;97.40
18694;DHT22;9477;51.414;10.362;2023-05-23T01:36:59;18.60;97.40
18694;DHT22;9477;51.414;10.362;2023-05-23T01:39:02;18.50;97.40
18694;DHT22;9477;51.414;10.362;2023-05-23T01:41:05;18.60;97.50
18694;DHT22;9477;51.414;10.362;2023-05-23T01:43:08;18.50;97.60
18694;DHT22;9477;51.414;10.362;2023-05-23T01:45:13;18.30;97.80
18694;DHT22;9477;51.414;10.362;2023-05-23T01:47:17;18.30;97.90
18694;DHT22;9477;51.414;10.362;2023-05-23T01:49:21;18.20;98.00
18694;DHT22;9477;51.414;10.362;2023-05-23T01:51:24;18.30;98.10
18694;DHT22;9477;51.414;10.362;2023-05-23T01:53:28;18.60;98.10
18694;DHT22;9477;51.414;10.362;2023-05-23T01:55:32;18.70;97.80
18694;DHT22;9477;51.414;10.362;2023-05-23T01:57:35;18.80;97.70
18694;DHT22;9477;51.414;10.362;2023-05-23T01:59:39;18.90;97.60
18694;DHT22;9477;51.414;10.362;2023-05-23T02:01:43;18.60;97.40
18694;DHT22;9477;51.414;10.362;2023-05-23T02:03:46;18.50;97.60
18694;DHT22;9477;51.414;10.362;2023-05-23T02:05:49;18.30;97.80
18694;DHT22;9477;51.414;10.362;2023-05-23T02:07:51;18.50;98.10
18694;DHT22;9477;51.414;10.362;2023-05-23T02:09:54;18.40;98.00
18694;DHT22;9477;51.414;10.362;2023-05-23T02:11:57;18.50;98.00
18694;DHT22;9477;51.414;10.362;2023-05-23T02:14:01;18.70;98.00
18694;DHT22;9477;51.414;10.362;2023-05-23T02:16:04;18.40;97.70
18694;DHT22;9477;51.414;10.362;2023-05-23T02:18:08;18.30;97.80
18694;DHT22;9477;51.414;10.362;2023-05-23T02:20:11;18.40;97.80
18694;DHT22;9477;51.414;10.362;2023-05-23T02:22:15;18.20;98.10
18694;DHT22;9477;51.414;10.362;2023-05-23T02:24:17;18.40;98.30
18694;DHT22;9477;51.414;10.362;2023-05-23T02:26:21;18.50;98.30
18694;DHT22;9477;51.414;10.362;2023-05-23T02:28:24;18.50;98.10
18694;DHT22;9477;51.414;10.362;2023-05-23T02:30:27;18.00;98.20
18694;DHT22;9477;51.414;10.362;2023-05-23T02:32:30;18.20;98.50
18694;DHT22;9477;51.414;10.362;2023-05-23T02:34:34;18.00;98.60
18694;DHT22;9477;51.414;10.362;2023-05-23T02:36:38;18.00;99.00
18694;DHT22;9477;51.414;10.362;2023-05-23T02:38:41;18.00;99.10
18694;DHT22;9477;51.414;10.362;2023-05-23T02:40:44;18.10;99.30
18694;DHT22;9477;51.414;10.362;2023-05-23T02:42:47;17.90;99.20
18694;DHT22;9477;51.414;10.362;2023-05-23T02:44:51;17.60;99.40
18694;DHT22;9477;51.414;10.362;2023-05-23T02:46:54;18.00;99.50
18694;DHT22;9477;51.414;10.362;2023-05-23T02:48:57;17.80;99.70
18694;DHT22;9477;51.414;10.362;2023-05-23T02:51:00;18.00;99.80
18694;DHT22;9477;51.414;10.362;2023-05-23T02:53:03;18.50;99.60
18694;DHT22;9477;51.414;10.362;2023-05-23T02:55:06;18.20;99.40
18694;DHT22;9477;51.414;10.362;2023-05-23T02:57:09;18.30;99.50
18694;DHT22;9477;51.414;10.362;2023-05-23T02:59:12;18.10;99.50
18694;DHT22;9477;51.414;10.362;2023-05-23T03:01:15;18.10;99.60
18694;DHT22;9477;51.414;10.362;2023-05-23T03:03:18;18.40;99.80
18694;DHT22;9477;51.414;10.362;2023-05-23T03:05:21;18.10;99.60
18694;DHT22;9477;51.414;10.362;2023-05-23T03:07:25;17.90;99.80
18694;DHT22;9477;51.414;10.362;2023-05-23T03:09:29;17.80;99.90
18694;DHT22;9477;51.414;10.362;2023-05-23T03:11:32;17.90;99.90
18694;DHT22;9477;51.414;10.362;2023-05-23T03:13:35;17.70;99.90
18694;DHT22;9477;51.414;10.362;2023-05-23T03:15:38;17.60;99.90
18694;DHT22;9477;51.414;10.362;2023-05-23T03:17:41;17.70;99.90
18694;DHT22;9477;51.414;10.362;2023-05-23T03:19:44;17.90;99.90
18694;DHT22;9477;51.414;10.362;2023-05-23T03:21:48;18.00;99.40
18694;DHT22;9477;51.414;10.362;2023-05-23T03:23:54;17.60;98.90
18694;DHT22;9477;51.414;10.362;2023-05-23T03:25:57;17.30;99.00
18694;DHT22;9477;51.414;10.362;2023-05-23T03:28:00;17.30;99.60
18694;DHT22;9477;51.414;10.362;2023-05-23T03:30:04;17.40;99.80
18694;DHT22;9477;51.414;10.362;2023-05-23T03:32:07;17.10;99.60
18694;DHT22;9477;51.414;10.362;2023-05-23T03:34:10;17.10;99.20
18694;DHT22;9477;51.414;10.362;2023-05-23T03:36:13;17.00;99.10
18694;DHT22;9477;51.414;10.362;2023-05-23T03:38:16;16.90;99.00
18694;DHT22;9477;51.414;10.362;2023-05-23T03:40:20;17.30;99.10
18694;DHT22;9477;51.414;10.362;2023-05-23T03:42:23;17.10;98.60
18694;DHT22;9477;51.414;10.362;2023-05-23T03:44:26;17.10;98.80
18694;DHT22;9477;51.414;10.362;2023-05-23T03:46:29;16.80;98.40
18694;DHT22;9477;51.414;10.362;2023-05-23T03:48:33;16.40;98.30
18694;DHT22;9477;51.414;10.362;2023-05-23T03:50:36;16.50;98.60
18694;DHT22;9477;51.414;10.362;2023-05-23T03:52:39;16.70;98.60
18694;DHT22;9477;51.414;10.362;2023-05-23T03:54:41;16.70;98.30
18694;DHT22;9477;51.414;10.362;2023-05-23T03:56:46;16.70;98.30
18694;DHT22;9477;51.414;10.362;2023-05-23T03:58:48;16.50;98.00
18694;DHT22;9477;51.414;10.362;2023-05-23T04:00:51;16.80;98.10
18694;DHT22;9477;51.414;10.362;2023-05-23T04:02:54;16.30;97.60
18694;DHT22;9477;51.414;10.362;2023-05-23T04:04:58;16.50;98.20
18694;DHT22;9477;51.414;10.362;2023-05-23T04:07:01;16.60;98.30
18694;DHT22;9477;51.414;10.362;2023-05-23T04:09:06;16.80;98.00
18694;DHT22;9477;51.414;10.362;2023-05-23T04:11:09;16.80;97.90
18694;DHT22;9477;51.414;10.362;2023-05-23T04:13:13;16.60;97.90
18694;DHT22;9477;51.414;10.362;2023-05-23T04:15:17;16.90;98.10
18694;DHT22;9477;51.414;10.362;2023-05-23T04:17:22;16.80;97.80
18694;DHT22;9477;51.414;10.362;2023-05-23T04:19:25;16.70;97.70
18694;DHT22;9477;51.414;10.362;2023-05-23T04:21:28;16.60;97.90
18694;DHT22;9477;51.414;10.362;2023-05-23T04:23:31;16.80;98.00
18694;DHT22;9477;51.414;10.362;2023-05-23T04:25:34;16.70;97.60
18694;DHT22;9477;51.414;10.362;2023-05-23T04:27:37;16.70;98.00
18694;DHT22;9477;51.414;10.362;2023-05-23T04:29:42;16.50;97.90
18694;DHT22;9477;51.414;10.362;2023-05-23T04:31:47;16.60;98.20
18694;DHT22;9477;51.414;10.362;2023-05-23T04:33:50;16.60;98.40
18694;DHT22;9477;51.414;10.362;2023-05-23T04:35:53;16.50;98.30
18694;DHT22;9477;51.414;10.362;2023-05-23T04:37:56;16.90;98.40
18694;DHT22;9477;51.414;10.362;2023-05-23T04:39:59;16.70;97.60
18694;DHT22;9477;51.414;10.362;2023-05-23T04:42:02;16.80;97.80
18694;DHT22;9477;51.414;10.362;2023-05-23T04:44:05;16.90;97.70
18694;DHT22;9477;51.414;10.362;2023-05-23T04:46:09;17.10;97.60
18694;DHT22;9477;51.414;10.362;2023-05-23T04:48:12;17.00;97.60
18694;DHT22;9477;51.414;10.362;2023-05-23T04:50:17;17.20;97.70
18694;DHT22;9477;51.414;10.362;2023-05-23T04:52:22;17.10;97.40
18694;DHT22;9477;51.414;10.362;2023-05-23T04:54:26;17.10;97.40
18694;DHT22;9477;51.414;10.362;2023-05-23T04:56:29;16.80;97.10
18694;DHT22;9477;51.414;10.362;2023-05-23T04:58:31;16.80;97.50
18694;DHT22;9477;51.414;10.362;2023-05-23T05:00:34;16.90;97.60
18694;DHT22;9477;51.414;10.362;2023-05-23T05:02:40;16.90;97.70
18694;DHT22;9477;51.414;10.362;2023-05-23T05:04:43;17.00;97.50
18694;DHT22;9477;51.414;10.362;2023-05-23T05:06:46;17.00;97.50
18694;DHT22;9477;51.414;10.362;2023-05-23T05:08:49;17.10;97.50
18694;DHT22;9477;51.414;10.362;2023-05-23T05:10:53;17.10;97.50
18694;DHT22;9477;51.414;10.362;2023-05-23T05:12:56;16.90;97.00
18694;DHT22;9477;51.414;10.362;2023-05-23T05:14:58;17.20;96.90
18694;DHT22;9477;51.414;10.362;2023-05-23T05:17:01;17.20;97.20
18694;DHT22;9477;51.414;10.362;2023-05-23T05:19:06;16.80;96.90
18694;DHT22;9477;51.414;10.362;2023-05-23T05:21:09;16.90;97.30
18694;DHT22;9477;51.414;10.362;2023-05-23T05:23:12;17.00;97.10
18694;DHT22;9477;51.414;10.362;2023-05-23T05:25:15;17.20;97.30
18694;DHT22;9477;51.414;10.362;2023-05-23T05:27:17;17.40;97.00
18694;DHT22;9477;51.414;10.362;2023-05-23T05:29:21;17.30;96.50
18694;DHT22;9477;51.414;10.362;2023-05-23T05:31:24;17.00;96.30
18694;DHT22;9477;51.414;10.362;2023-05-23T05:33:27;17.00;96.40
18694;DHT22;9477;51.414;10.362;2023-05-23T05:35:31;16.90;96.40
18694;DHT22;9477;51.414;10.362;2023-05-23T05:37:34;16.70;95.90
18694;DHT22;9477;51.414;10.362;2023-05-23T05:39:37;16.70;96.30
18694;DHT22;9477;51.414;10.362;2023-05-23T05:41:40;16.60;96.20
18694;DHT22;9477;51.414;10.362;2023-05-23T05:43:43;16.60;96.40
18694;DHT22;9477;51.414;10.362;2023-05-23T05:45:45;17.00;96.40
18694;DHT22;9477;51.414;10.362;2023-05-23T05:47:48;17.10;96.40
18694;DHT22;9477;51.414;10.362;2023-05-23T05:49:52;16.90;96.10
18694;DHT22;9477;51.414;10.362;2023-05-23T05:51:56;17.20;96.40
18694;DHT22;9477;51.414;10.362;2023-05-23T05:53:59;16.90;95.80
18694;DHT22;9477;51.414;10.362;2023-05-23T05:56:02;16.60;96.10
18694;DHT22;9477;51.414;10.362;2023-05-23T05:58:05;16.80;96.30
18694;DHT22;9477;51.414;10.362;2023-05-23T06:00:09;16.80;96.20
18694;DHT22;9477;51.414;10.362;2023-05-23T06:02:15;17.10;96.30
18694;DHT22;9477;51.414;10.362;2023-05-23T06:04:18;17.10;96.10
18694;DHT22;9477;51.414;10.362;2023-05-23T06:06:21;17.30;96.10
18694;DHT22;9477;51.414;10.362;2023-05-23T06:08:25;17.30;95.40
18694;DHT22;9477;51.414;10.362;2023-05-23T06:10:28;17.40;95.30
18694;DHT22;9477;51.414;10.362;2023-05-23T06:12:31;17.00;95.10
18694;DHT22;9477;51.414;10.362;2023-05-23T06:14:34;16.60;95.30
18694;DHT22;9477;51.414;10.362;2023-05-23T06:16:37;16.70;95.80
18694;DHT22;9477;51.414;10.362;2023-05-23T06:18:40;16.80;96.00
18694;DHT22;9477;51.414;10.362;2023-05-23T06:20:43;16.70;96.00
18694;DHT22;9477;51.414;10.362;2023-05-23T06:22:46;16.70;96.20
18694;DHT22;9477;51.414;10.362;2023-05-23T06:24:50;16.90;96.20
18694;DHT22;9477;51.414;10.362;2023-05-23T06:26:53;17.10;96.00
18694;DHT22;9477;51.414;10.362;2023-05-23T06:28:56;17.00;95.50
18694;DHT22;9477;51.414;10.362;2023-05-23T06:30:59;17.20;95.60
18694;DHT22;9477;51.414;10.362;2023-05-23T06:33:02;17.50;95.60
18694;DHT22;9477;51.414;10.362;2023-05-23T06:35:05;17.10;95.00
18694;DHT22;9477;51.414;10.362;2023-05-23T06:37:08;17.40;95.50
18694;DHT22;9477;51.414;10.362;2023-05-23T06:39:11;17.50;95.80
18694;DHT22;9477;51.414;10.362;2023-05-23T06:41:15;17.20;95.10
18694;DHT22;9477;51.414;10.362;2023-05-23T06:43:18;17.30;95.40
18694;DHT22;9477;51.414;10.362;2023-05-23T06:45:21;17.60;95.80
18694;DHT22;9477;51.414;10.362;2023-05-23T06:47:24;17.70;95.40
18694;DHT22;9477;51.414;10.362;2023-05-23T06:49:27;17.40;95.10
18694;DHT22;9477;51.414;10.362;2023-05-23T06:51:29;17.50;95.50
18694;DHT22;9477;51.414;10.362;2023-05-23T06:53:33;17.70;95.70
18694;DHT22;9477;51.414;10.362;2023-05-23T06:55:35;17.50;95.60
18694;DHT22;9477;51.414;10.362;2023-05-23T06:57:39;17.00;95.50
18694;DHT22;9477;51.414;10.362;2023-05-23T06:59:42;17.10;95.90
18694;DHT22;9477;51.414;10.362;2023-05-23T07:01:45;17.50;95.80
18694;DHT22;9477;51.414;10.362;2023-05-23T07:03:48;17.30;95.90
18694;DHT22;9477;51.414;10.362;2023-05-23T07:05:51;17.20;96.20
18694;DHT22;9477;51.414;10.362;2023-05-23T07:07:54;17.50;96.40
18694;DHT22;9477;51.414;10.362;2023-05-23T07:09:57;17.50;96.20
18694;DHT22;9477;51.414;10.362;2023-05-23T07:12:00;17.50;96.10
18694;DHT22;9477;51.414;10.362;2023-05-23T07:14:04;17.40;95.70
18694;DHT22;9477;51.414;10.362;2023-05-23T07:16:08;17.00;95.90
18694;DHT22;9477;51.414;10.362;2023-05-23T07:18:11;17.10;96.20
18694;DHT22;9477;51.414;10.362;2023-05-23T07:20:14;17.30;96.50
18694;DHT22;9477;51.414;10.362;2023-05-23T07:22:17;17.00;96.10
18694;DHT22;9477;51.414;10.362;2023-05-23T07:24:20;16.70;96.40
18694;DHT22;9477;51.414;10.362;2023-05-23T07:26:25;16.80;96.70
18694;DHT22;9477;51.414;10.362;2023-05-23T07:28:29;17.00;97.00
18694;DHT22;9477;51.414;10.362;2023-05-23T07:30:33;17.30;97.00
18694;DHT22;9477;51.414;10.362;2023-05-23T07:32:35;17.40;96.80
18694;DHT22;9477;51.414;10.362;2023-05-23T07:34:38;17.30;96.60
18694;DHT22;9477;51.414;10.362;2023-05-23T07:36:41;16.90;96.30
18694;DHT22;9477;51.414;10.362;2023-05-23T07:38:44;17.20;96.80
18694;DHT22;9477;51.414;10.362;2023-05-23T07:40:47;17.30;96.80
18694;DHT22;9477;51.414;10.362;2023-05-23T07:43:07;16.80;96.70
18694;DHT22;9477;51.414;10.362;2023-05-23T07:45:20;17.00;97.20
18694;DHT22;9477;51.414;10.362;2023-05-23T07:47:25;17.00;97.00
18694;DHT22;9477;51.414;10.362;2023-05-23T07:49:28;17.30;97.00
18694;DHT22;9477;51.414;10.362;2023-05-23T07:51:33;17.20;96.90
18694;DHT22;9477;51.414;10.362;2023-05-23T07:53:41;17.00;97.10
18694;DHT22;9477;51.414;10.362;2023-05-23T07:55:43;17.20;97.20
18694;DHT22;9477;51.414;10.362;2023-05-23T07:57:46;17.20;97.30
18694;DHT22;9477;51.414;10.362;2023-05-23T07:59:50;16.80;97.40
18694;DHT22;9477;51.414;10.362;2023-05-23T08:01:53;16.80;97.50
18694;DHT22;9477;51.414;10.362;2023-05-23T08:03:57;16.80;97.90
18694;DHT22;9477;51.414;10.362;2023-05-23T08:06:00;16.70;98.00
18694;DHT22;9477;51.414;10.362;2023-05-23T08:08:03;16.40;98.30
18694;DHT22;9477;51.414;10.362;2023-05-23T08:10:06;16.60;98.30
18694;DHT22;9477;51.414;10.362;2023-05-23T08:12:10;16.40;98.60
18694;DHT22;9477;51.414;10.362;2023-05-23T08:14:13;16.50;99.00
18694;DHT22;9477;51.414;10.362;2023-05-23T08:16:15;16.30;98.90
18694;DHT22;9477;51.414;10.362;2023-05-23T08:18:18;16.40;99.00
18694;DHT22;9477;51.414;10.362;2023-05-23T08:20:23;16.90;98.90
18694;DHT22;9477;51.414;10.362;2023-05-23T08:22:31;16.80;98.50
18694;DHT22;9477;51.414;10.362;2023-05-23T08:24:34;16.90;98.30
18694;DHT22;9477;51.414;10.362;2023-05-23T08:26:36;16.60;98.50
18694;DHT22;9477;51.414;10.362;2023-05-23T08:28:39;16.80;98.50
18694;DHT22;9477;51.414;10.362;2023-05-23T08:30:42;16.80;98.60
18694;DHT22;9477;51.414;10.362;2023-05-23T08:32:45;17.10;98.60
18694;DHT22;9477;51.414;10.362;2023-05-23T08:34:48;17.10;98.30
18694;DHT22;9477;51.414;10.362;2023-05-23T08:36:52;17.10;98.10
18694;DHT22;9477;51.414;10.362;2023-05-23T08:38:55;17.10;98.20
18694;DHT22;9477;51.414;10.362;2023-05-23T08:41:00;17.10;98.20
18694;DHT22;9477;51.414;10.362;2023-05-23T08:43:03;17.20;98.20
18694;DHT22;9477;51.414;10.362;2023-05-23T08:45:08;17.10;98.20
18694;DHT22;9477;51.414;10.362;2023-05-23T08:47:12;16.80;98.20
18694;DHT22;9477;51.414;10.362;2023-05-23T08:49:18;17.00;98.50
18694;DHT22;9477;51.414;10.362;2023-05-23T08:51:23;17.10;98.70
18694;DHT22;9477;51.414;10.362;2023-05-23T08:53:28;16.90;98.90
18694;DHT22;9477;51.414;10.362;2023-05-23T08:55:32;16.70;99.10
18694;DHT22;9477;51.414;10.362;2023-05-23T08:57:36;16.90;99.50
18694;DHT22;9477;51.414;10.362;2023-05-23T08:59:40;16.80;99.30
18694;DHT22;9477;51.414;10.362;2023-05-23T09:01:43;17.30;99.10
18694;DHT22;9477;51.414;10.362;2023-05-23T09:03:47;17.20;98.80
18694;DHT22;9477;51.414;10.362;2023-05-23T09:05:50;17.30;98.80
18694;DHT22;9477;51.414;10.362;2023-05-23T09:07:55;17.30;98.50
18694;DHT22;9477;51.414;10.362;2023-05-23T09:09:59;17.20;98.40
18694;DHT22;9477;51.414;10.362;2023-05-23T09:12:02;17.00;98.40
18694;DHT22;9477;51.414;10.362;2023-05-23T09:14:05;16.80;98.80
18694;DHT22;9477;51.414;10.362;2023-05-23T09:16:09;16.50;99.00
18694;DHT22;9477;51.414;10.362;2023-05-23T09:18:13;16.50;99.60
18694;DHT22;9477;51.414;10.362;2023-05-23T09:20:16;16.70;99.90
18694;DHT22;9477;51.414;10.362;2023-05-23T09:22:23;16.90;99.40
18694;DHT22;9477;51.414;10.362;2023-05-23T09:24:32;16.90;99.00
18694;DHT22;9477;51.414;10.362;2023-05-23T09:26:37;16.70;98.90
18694;DHT22;9477;51.414;10.362;2023-05-23T09:28:41;17.00;98.90
18694;DHT22;9477;51.414;10.362;2023-05-23T09:30:44;16.70;98.70
18694;DHT22;9477;51.414;10.362;2023-05-23T09:32:59;16.90;98.90
18694;DHT22;9477;51.414;10.362;2023-05-23T09:35:07;17.10;99.00
18694;DHT22;9477;51.414;10.362;2023-05-23T09:37:12;17.10;98.80
18694;DHT22;9477;51.414;10.362;2023-05-23T09:39:19;17.00;98.80
18694;DHT22;9477;51.414;10.362;2023-05-23T09:41:22;17.20;99.10
18694;DHT22;9477;51.414;10.362;2023-05-23T09:43:27;16.90;98.80
18694;DHT22;9477;51.414;10.362;2023-05-23T09:45:31;17.00;98.90
18694;DHT22;9477;51.414;10.362;2023-05-23T09:47:34;17.30;98.80
18694;DHT22;9477;51.414;10.362;2023-05-23T09:49:38;17.10;98.30
18694;DHT22;9477;51.414;10.362;2023-05-23T09:51:41;16.80;98.70
18694;DHT22;9477;51.414;10.362;2023-05-23T09:53:43;16.70;98.80
18694;DHT22;9477;51.414;10.362;2023-05-23T09:55:48;16.70;99.10
18694;DHT22;9477;51.414;10.362;2023-05-23T09:57:53;17.00;98.80
18694;DHT22;9477;51.414;10.362;2023-05-23T10:00:00;17.00;98.90
18694;DHT22;9477;51.414;10.362;2023-05-23T10:02:09;16.80;99.00
18694;DHT22;9477;51.414;10.362;2023-05-23T10:04:13;16.70;99.00
18694;DHT22;9477;51.414;10.362;2023-05-23T10:06:24;16.70;99.10
18694;DHT22;9477;51.414;10.362;2023-05-23T10:08:38;16.60;99.20
18694;DHT22;9477;51.414;10.362;2023-05-23T10:13:34;17.00;99.30
18694;DHT22;9477;51.414;10.362;2023-05-23T10:15:39;17.00;99.00
18694;DHT22;9477;51.414;10.362;2023-05-23T10:17:59;17.10;98.90
18694;DHT22;9477;51.414;10.362;2023-05-23T10:20:07;16.80;98.80
18694;DHT22;9477;51.414;10.362;2023-05-23T10:22:13;16.70;99.00
18694;DHT22;9477;51.414;10.362;2023-05-23T10:24:17;16.90;99.30
18694;DHT22;9477;51.414;10.362;2023-05-23T10:26:21;17.20;99.00
18694;DHT22;9477;51.414;10.362;2023-05-23T10:28:24;16.80;98.20
18694;DHT22;9477;51.414;10.362;2023-05-23T10:30:28;16.90;98.60
18694;DHT22;9477;51.414;10.362;2023-05-23T10:32:32;17.00;98.80
18694;DHT22;9477;51.414;10.362;2023-05-23T10:34:40;16.30;98.50
18694;DHT22;9477;51.414;10.362;2023-05-23T10:36:54;16.60;99.30
18694;DHT22;9477;51.414;10.362;2023-05-23T10:39:03;16.00;99.30
18694;DHT22;9477;51.414;10.362;2023-05-23T10:41:10;16.00;99.40
18694;DHT22;9477;51.414;10.362;2023-05-23T10:43:18;16.20;99.50
18694;DHT22;9477;51.414;10.362;2023-05-23T10:45:23;16.20;99.50
18694;DHT22;9477;51.414;10.362;2023-05-23T10:47:26;16.20;99.60
18694;DHT22;9477;51.414;10.362;2023-05-23T10:49:44;16.40;99.60
18694;DHT22;9477;51.414;10.362;2023-05-23T10:51:49;16.30;99.50
18694;DHT22;9477;51.414;10.362;2023-05-23T10:53:53;16.10;99.90
18694;DHT22;9477;51.414;10.362;2023-05-23T10:55:56;15.80;99.70
18694;DHT22;9477;51.414;10.362;2023-05-23T10:58:09;16.20;99.70
18694;DHT22;9477;51.414;10.362;2023-05-23T11:00:14;15.80;99.70
18694;DHT22;9477;51.414;10.362;2023-05-23T11:02:18;15.90;99.50
18694;DHT22;9477;51.414;10.362;2023-05-23T11:04:25;15.80;99.60
18694;DHT22;9477;51.414;10.362;2023-05-23T11:06:32;16.10;99.90
18694;DHT22;9477;51.414;10.362;2023-05-23T11:08:36;15.60;99.40
18694;DHT22;9477;51.414;10.362;2023-05-23T11:10:53;15.90;99.80
18694;DHT22;9477;51.414;10.362;2023-05-23T11:13:05;16.00;99.70
18694;DHT22;9477;51.414;10.362;2023-05-23T11:15:20;15.80;99.90
18694;DHT22;9477;51.414;10.362;2023-05-23T11:17:30;15.30;99.90
18694;DHT22;9477;51.414;10.362;2023-05-23T11:19:33;15.20;99.90
18694;DHT22;9477;51.414;10.362;2023-05-23T11:21:38;14.90;99.90
18694;DHT22;9477;51.414;10.362;2023-05-23T11:23:41;14.40;99.90
18694;DHT22;9477;51.414;10.362;2023-05-23T11:25:47;14.90;99.90
18694;DHT22;9477;51.414;10.362;2023-05-23T11:27:51;14.60;99.90
18694;DHT22;9477;51.414;10.362;2023-05-23T11:29:59;14.50;99.90
18694;DHT22;9477;51.414;10.362;2023-05-23T11:32:09;14.80;99.90
18694;DHT22;9477;51.414;10.362;2023-05-23T11:34:18;14.80;99.90
18694;DHT22;9477;51.414;10.362;2023-05-23T11:36:22;14.80;99.90
18694;DHT22;9477;51.414;10.362;2023-05-23T11:38:26;14.50;99.90
18694;DHT22;9477;51.414;10.362;2023-05-23T11:40:30;14.60;99.90
18694;DHT22;9477;51.414;10.362;2023-05-23T11:42:33;14.80;99.90
18694;DHT22;9477;51.414;10.362;2023-05-23T11:44:43;15.40;99.90
18694;DHT22;9477;51.414;10.362;2023-05-23T11:46:58;15.30;99.70
18694;DHT22;9477;51.414;10.362;2023-05-23T11:49:02;15.40;99.40
18694;DHT22;9477;51.414;10.362;2023-05-23T11:51:04;15.10;99.40
18694;DHT22;9477;51.414;10.362;2023-05-23T11:53:07;15.30;99.90
18694;DHT22;9477;51.414;10.362;2023-05-23T11:55:11;15.10;99.40
18694;DHT22;9477;51.414;10.362;2023-05-23T11:57:14;15.30;99.40
18694;DHT22;9477;51.414;10.362;2023-05-23T11:59:17;15.10;99.40
18694;DHT22;9477;51.414;10.362;2023-05-23T12:01:20;15.30;99.40
18694;DHT22;9477;51.414;10.362;2023-05-23T12:03:23;15.50;99.30
18694;DHT22;9477;51.414;10.362;2023-05-23T12:05:27;15.00;98.90
18694;DHT22;9477;51.414;10.362;2023-05-23T12:07:32;14.80;99.20
18694;DHT22;9477;51.414;10.362;2023-05-23T12:09:43;14.90;99.40
18694;DHT22;9477;51.414;10.362;2023-05-23T12:11:48;15.00;99.50
18694;DHT22;9477;51.414;10.362;2023-05-23T12:13:51;14.50;99.90
18694;DHT22;9477;51.414;10.362;2023-05-23T12:15:55;14.20;99.90
18694;DHT22;9477;51.414;10.362;2023-05-23T12:17:59;14.50;99.90
18694;DHT22;9477;51.414;10.362;2023-05-23T12:20:04;14.20;99.90
18694;DHT22;9477;51.414;10.362;2023-05-23T12:22:08;14.00;99.90
18694;DHT22;9477;51.414;10.362;2023-05-23T12:24:15;13.90;99.90
18694;DHT22;9477;51.414;10.362;2023-05-23T12:26:18;14.10;99.90
18694;DHT22;9477;51.414;10.362;2023-05-23T12:28:37;14.60;99.90
18694;DHT22;9477;51.414;10.362;2023-05-23T12:30:43;14.50;99.90
18694;DHT22;9477;51.414;10.362;2023-05-23T12:32:46;14.60;99.90
18694;DHT22;9477;51.414;10.362;2023-05-23T12:34:49;14.80;99.90
18694;DHT22;9477;51.414;10.362;2023-05-23T12:36:54;14.80;99.90
18694;DHT22;9477;51.414;10.362;2023-05-23T12:39:23;14.90;99.90
18694;DHT22;9477;51.414;10.362;2023-05-23T12:41:26;15.20;99.90
18694;DHT22;9477;51.414;10.362;2023-05-23T12:43:29;15.20;99.80
18694;DHT22;9477;51.414;10.362;2023-05-23T12:45:34;14.90;99.70
18694;DHT22;9477;51.414;10.362;2023-05-23T12:47:37;15.00;99.90
18694;DHT22;9477;51.414;10.362;2023-05-23T12:49:40;14.80;99.80
18694;DHT22;9477;51.414;10.362;2023-05-23T12:51:45;15.10;99.90
18694;DHT22;9477;51.414;10.362;2023-05-23T12:53:49;14.90;99.90
18694;DHT22;9477;51.414;10.362;2023-05-23T12:55:52;14.60;99.90
18694;DHT22;9477;51.414;10.362;2023-05-23T12:57:54;14.80;99.90
18694;DHT22;9477;51.414;10.362;2023-05-23T12:59:57;14.50;99.90
18694;DHT22;9477;51.414;10.362;2023-05-23T13:02:02;14.60;99.90
18694;DHT22;9477;51.414;10.362;2023-05-23T13:04:04;14.20;99.90
18694;DHT22;9477;51.414;10.362;2023-05-23T13:06:07;14.50;99.90
18694;DHT22;9477;51.414;10.362;2023-05-23T13:08:10;14.70;99.90